Time;durP1;ratioP1;P1;durP2;ratioP2;P2;SDS_P1;SDS_P2;PMS_P1;PMS_P2;Temp;Humidity;BMP_temperature;BMP_pressure;BME280_temperature;BME280_humidity;BME280_pressure;Samples;Min_cycle;Max_cycle;Signal;HPM_P1;HPM_P2
2021/09/08 00:00:44;;;;;;;37.28;23.67;;;17.30;99.90;;;;;;5065212;28;20098;-62
2021/09/08 00:03:10;;;;;;;35.10;23.27;;;17.30;99.90;;;;;;5049513;28;20044;-63
2021/09/08 00:05:36;;;;;;;38.85;24.52;;;17.30;99.90;;;;;;5045185;28;20315;-62
2021/09/08 00:08:03;;;;;;;34.17;24.15;;;17.20;99.90;;;;;;5047894;28;20037;-61
2021/09/08 00:10:29;;;;;;;42.45;25.45;;;17.30;99.90;;;;;;5047738;28;20049;-64
2021/09/08 00:12:55;;;;;;;36.97;23.17;;;17.20;99.90;;;;;;5051236;28;20091;-61
2021/09/08 00:15:20;;;;;;;44.65;25.42;;;17.20;99.90;;;;;;5063610;28;20045;-62
2021/09/08 00:17:46;;;;;;;39.08;24.30;;;17.20;99.90;;;;;;5044837;28;20059;-61
2021/09/08 00:20:13;;;;;;;41.90;25.05;;;17.10;99.90;;;;;;5056927;28;20052;-61
2021/09/08 00:22:39;;;;;;;36.13;24.90;;;17.00;99.90;;;;;;5051163;28;20036;-61
2021/09/08 00:25:06;;;;;;;38.70;26.70;;;17.00;99.90;;;;;;5062539;28;20318;-61
2021/09/08 00:27:32;;;;;;;38.92;27.45;;;17.00;99.90;;;;;;5045277;28;20095;-61
2021/09/08 00:29:58;;;;;;;41.60;26.45;;;16.90;99.90;;;;;;5056232;28;20564;-62
2021/09/08 00:32:24;;;;;;;42.53;27.02;;;16.90;99.90;;;;;;5045613;28;20056;-61
2021/09/08 00:34:50;;;;;;;40.75;26.85;;;16.80;99.90;;;;;;5061531;28;20041;-62
2021/09/08 00:37:15;;;;;;;40.72;25.92;;;16.80;99.90;;;;;;5044780;28;20042;-61
2021/09/08 00:39:41;;;;;;;42.40;26.13;;;16.70;99.90;;;;;;5054491;28;20050;-61
2021/09/08 00:42:11;;;;;;;40.13;26.75;;;16.70;99.90;;;;;;5040405;28;20046;-61
2021/09/08 00:44:37;;;;;;;38.75;27.08;;;16.60;99.90;;;;;;5056935;28;20509;-61
2021/09/08 00:47:03;;;;;;;41.03;26.90;;;16.60;99.90;;;;;;5046555;28;20045;-61
2021/09/08 00:49:29;;;;;;;41.35;26.23;;;16.60;99.90;;;;;;5055155;28;20056;-61
2021/09/08 00:51:56;;;;;;;47.03;27.98;;;16.60;99.90;;;;;;5046279;28;20064;-61
2021/09/08 00:54:23;;;;;;;48.53;27.45;;;16.60;99.90;;;;;;5047648;28;20424;-61
2021/09/08 00:56:53;;;;;;;44.20;26.08;;;16.50;99.90;;;;;;5048048;28;20037;-61
2021/09/08 00:59:20;;;;;;;43.97;26.33;;;16.50;99.90;;;;;;5045865;28;20040;-61
2021/09/08 01:01:46;;;;;;;36.90;25.87;;;16.40;99.90;;;;;;5043352;28;20052;-61
2021/09/08 01:04:14;;;;;;;44.33;26.45;;;16.40;99.90;;;;;;5053313;28;20554;-62
2021/09/08 01:06:40;;;;;;;41.03;25.52;;;16.40;99.90;;;;;;5043864;28;20053;-61
2021/09/08 01:09:06;;;;;;;45.90;26.67;;;16.40;99.90;;;;;;5035897;28;20041;-61
2021/09/08 01:11:34;;;;;;;41.97;26.40;;;16.30;99.90;;;;;;5039701;28;20128;-61
2021/09/08 01:13:59;;;;;;;39.85;26.33;;;16.30;99.90;;;;;;5034254;28;20087;-61
2021/09/08 01:16:25;;;;;;;40.83;25.23;;;16.30;99.90;;;;;;5048882;28;20053;-61
2021/09/08 01:18:51;;;;;;;38.15;25.23;;;16.20;99.90;;;;;;5031226;28;20080;-61
2021/09/08 01:21:17;;;;;;;40.05;25.55;;;16.30;99.90;;;;;;5047564;28;20514;-63
2021/09/08 01:23:42;;;;;;;39.55;26.10;;;16.20;99.90;;;;;;5050582;28;20179;-61
2021/09/08 01:26:09;;;;;;;38.55;25.17;;;16.20;99.90;;;;;;5050818;28;20075;-62
2021/09/08 01:28:35;;;;;;;38.33;26.33;;;16.20;99.90;;;;;;5043578;28;20077;-61
2021/09/08 01:31:04;;;;;;;41.47;25.88;;;16.20;99.90;;;;;;5043832;28;20088;-61
2021/09/08 01:33:29;;;;;;;38.53;22.27;;;16.20;99.90;;;;;;5062282;28;20047;-61
2021/09/08 01:35:55;;;;;;;41.63;25.48;;;16.10;99.90;;;;;;5051449;28;20081;-61
2021/09/08 01:38:21;;;;;;;43.17;26.70;;;16.10;99.90;;;;;;5052356;28;20049;-62
2021/09/08 01:40:47;;;;;;;42.65;24.80;;;16.10;99.90;;;;;;5042673;28;20049;-62
2021/09/08 01:43:13;;;;;;;37.30;24.85;;;16.10;99.90;;;;;;5048180;28;20060;-61
2021/09/08 01:45:41;;;;;;;41.70;25.60;;;16.10;99.90;;;;;;5040853;28;20046;-62
2021/09/08 01:48:07;;;;;;;38.60;25.15;;;16.10;99.90;;;;;;5039011;28;20145;-62
2021/09/08 01:50:33;;;;;;;39.95;25.33;;;16.00;99.90;;;;;;5041387;28;20061;-62
2021/09/08 01:52:59;;;;;;;40.08;26.15;;;16.00;99.90;;;;;;5042896;28;20261;-62
2021/09/08 01:55:25;;;;;;;40.50;25.80;;;16.00;99.90;;;;;;5041189;28;20045;-61
2021/09/08 01:57:50;;;;;;;45.38;27.73;;;16.00;99.90;;;;;;5034850;28;20046;-61
2021/09/08 02:00:16;;;;;;;41.03;27.20;;;16.00;99.90;;;;;;5041320;28;20136;-62
2021/09/08 02:02:42;;;;;;;50.75;28.67;;;15.90;99.90;;;;;;5035300;28;20099;-63
2021/09/08 02:05:10;;;;;;;42.83;28.23;;;15.90;99.90;;;;;;5041458;28;20053;-63
2021/09/08 02:07:36;;;;;;;42.95;27.40;;;15.80;99.90;;;;;;5041182;28;20053;-62
2021/09/08 02:10:03;;;;;;;39.28;27.38;;;15.80;99.90;;;;;;5039588;28;20060;-61
2021/09/08 02:12:29;;;;;;;40.20;26.30;;;15.70;99.90;;;;;;5033499;28;20057;-61
2021/09/08 02:14:54;;;;;;;37.22;25.15;;;15.70;99.90;;;;;;5041020;28;20091;-62
2021/09/08 02:17:20;;;;;;;41.33;26.25;;;15.70;99.90;;;;;;5041448;28;20105;-63
2021/09/08 02:19:46;;;;;;;38.22;26.08;;;15.70;99.90;;;;;;5041260;28;20046;-63
2021/09/08 02:22:11;;;;;;;41.80;26.77;;;15.60;99.90;;;;;;5037734;28;20029;-63
2021/09/08 02:24:37;;;;;;;37.25;25.50;;;15.60;99.90;;;;;;5045078;28;20045;-61
2021/09/08 02:27:03;;;;;;;40.05;27.02;;;15.60;99.90;;;;;;5040635;28;20486;-61
2021/09/08 02:29:28;;;;;;;38.33;24.73;;;15.50;99.90;;;;;;5039389;28;20140;-63
2021/09/08 02:31:54;;;;;;;38.85;25.02;;;15.50;99.90;;;;;;5039869;28;20527;-62
2021/09/08 02:34:20;;;;;;;40.92;25.05;;;15.50;99.90;;;;;;5042805;28;20042;-61
2021/09/08 02:36:46;;;;;;;40.35;25.27;;;15.40;99.90;;;;;;5042226;28;20085;-63
2021/09/08 02:39:12;;;;;;;41.40;27.65;;;15.40;99.90;;;;;;5041688;28;20045;-61
2021/09/08 02:41:38;;;;;;;39.10;25.95;;;15.40;99.90;;;;;;5042470;28;20096;-61
2021/09/08 02:44:03;;;;;;;43.95;28.67;;;15.60;99.90;;;;;;5043078;28;20037;-61
2021/09/08 02:46:29;;;;;;;44.25;28.75;;;15.40;99.90;;;;;;5043406;28;20124;-62
2021/09/08 02:48:55;;;;;;;43.67;27.10;;;15.30;99.90;;;;;;5041912;28;20128;-62
2021/09/08 02:51:20;;;;;;;45.42;28.88;;;15.40;99.90;;;;;;5041431;28;20053;-61
2021/09/08 02:53:46;;;;;;;51.78;29.30;;;15.40;99.90;;;;;;5042156;28;20041;-61
2021/09/08 02:56:12;;;;;;;43.30;29.67;;;15.30;99.90;;;;;;5041766;28;20665;-61
2021/09/08 02:58:38;;;;;;;39.55;27.10;;;15.30;99.90;;;;;;5044586;28;20034;-61
2021/09/08 03:01:03;;;;;;;43.10;29.52;;;15.30;99.90;;;;;;5040562;28;20069;-61
2021/09/08 03:03:29;;;;;;;42.63;29.20;;;15.30;99.90;;;;;;5034047;28;20067;-62
2021/09/08 03:05:55;;;;;;;43.80;31.17;;;15.30;99.90;;;;;;5040002;28;20489;-62
2021/09/08 03:08:20;;;;;;;45.78;29.27;;;15.30;99.90;;;;;;5034588;28;20103;-62
2021/09/08 03:10:47;;;;;;;45.17;29.08;;;15.20;99.90;;;;;;5038874;28;20041;-62
2021/09/08 03:13:17;;;;;;;41.50;27.77;;;15.20;99.90;;;;;;5033897;28;20041;-61
2021/09/08 03:15:44;;;;;;;47.45;30.63;;;15.10;99.90;;;;;;5040190;28;20080;-61
2021/09/08 03:18:09;;;;;;;49.03;29.42;;;15.10;99.90;;;;;;5032963;28;20053;-62
2021/09/08 03:20:35;;;;;;;49.10;29.40;;;15.10;99.90;;;;;;5038665;28;20457;-62
2021/09/08 03:23:02;;;;;;;44.25;27.95;;;15.10;99.90;;;;;;5044977;28;20038;-62
2021/09/08 03:25:28;;;;;;;42.25;28.13;;;15.10;99.90;;;;;;5039667;28;20448;-62
2021/09/08 03:27:54;;;;;;;46.42;29.00;;;15.10;99.90;;;;;;5032550;28;20060;-61
2021/09/08 03:30:21;;;;;;;49.25;32.03;;;15.10;99.90;;;;;;5039566;28;20037;-61
2021/09/08 03:32:47;;;;;;;46.43;29.13;;;15.00;99.90;;;;;;5036905;28;20046;-61
2021/09/08 03:35:13;;;;;;;47.83;31.65;;;15.00;99.90;;;;;;5034450;28;20123;-62
2021/09/08 03:37:39;;;;;;;45.60;29.48;;;15.00;99.90;;;;;;5037980;28;20053;-62
2021/09/08 03:40:06;;;;;;;46.85;29.75;;;15.00;99.90;;;;;;5032546;28;20065;-62
2021/09/08 03:42:32;;;;;;;48.78;31.05;;;15.00;99.90;;;;;;5045479;28;20050;-62
2021/09/08 03:44:58;;;;;;;51.75;31.55;;;14.90;99.90;;;;;;5038479;28;20046;-61
2021/09/08 03:47:24;;;;;;;50.25;31.83;;;14.90;99.90;;;;;;5043236;28;20107;-62
2021/09/08 03:49:50;;;;;;;46.25;30.13;;;14.90;99.90;;;;;;5042006;28;20034;-61
2021/09/08 03:52:17;;;;;;;49.15;30.83;;;14.80;99.90;;;;;;5041043;28;20042;-62
2021/09/08 03:54:43;;;;;;;47.55;29.73;;;14.80;99.90;;;;;;5044425;28;20038;-62
2021/09/08 03:57:10;;;;;;;50.38;31.25;;;14.70;99.90;;;;;;5034700;28;20134;-61
2021/09/08 03:59:36;;;;;;;53.50;30.70;;;14.70;99.90;;;;;;5040137;28;20095;-62
2021/09/08 04:02:03;;;;;;;48.77;29.40;;;14.70;99.90;;;;;;5045381;28;20045;-63
2021/09/08 04:04:28;;;;;;;49.10;31.10;;;14.70;99.90;;;;;;5043548;28;20152;-62
2021/09/08 04:06:54;;;;;;;49.28;31.90;;;14.70;99.90;;;;;;5044819;28;20049;-62
2021/09/08 04:09:20;;;;;;;44.35;30.88;;;14.70;99.90;;;;;;5039272;28;20045;-62
2021/09/08 04:11:46;;;;;;;49.92;31.02;;;14.60;99.90;;;;;;5043042;28;20049;-62
2021/09/08 04:14:11;;;;;;;50.88;31.23;;;14.60;99.90;;;;;;5040024;28;20042;-62
2021/09/08 04:16:37;;;;;;;50.70;33.13;;;14.60;99.90;;;;;;5033043;28;20080;-62
2021/09/08 04:19:03;;;;;;;47.65;30.90;;;14.60;99.90;;;;;;5039992;28;20068;-62
2021/09/08 04:21:30;;;;;;;47.03;32.50;;;14.60;99.90;;;;;;5034130;28;20478;-62
2021/09/08 04:23:55;;;;;;;52.75;31.90;;;14.60;99.90;;;;;;5040538;28;20137;-62
2021/09/08 04:26:22;;;;;;;43.55;30.33;;;14.50;99.90;;;;;;5033536;28;20124;-61
2021/09/08 04:28:48;;;;;;;50.15;32.88;;;14.50;99.90;;;;;;5036406;28;20048;-62
2021/09/08 04:31:13;;;;;;;51.47;31.83;;;14.40;99.90;;;;;;5035211;28;20041;-62
2021/09/08 04:33:39;;;;;;;53.75;32.15;;;14.40;99.90;;;;;;5036396;28;20067;-62
2021/09/08 04:36:05;;;;;;;50.53;32.10;;;14.30;99.90;;;;;;5035957;28;20100;-62
2021/09/08 04:38:31;;;;;;;51.38;33.90;;;14.30;99.90;;;;;;5034426;28;20085;-62
2021/09/08 04:40:57;;;;;;;53.90;32.97;;;14.20;99.90;;;;;;5043537;28;20193;-62
2021/09/08 04:43:22;;;;;;;51.83;32.40;;;14.20;99.90;;;;;;5039606;28;20038;-62
2021/09/08 04:45:48;;;;;;;50.03;32.25;;;14.10;99.90;;;;;;5038742;28;20493;-62
2021/09/08 04:48:14;;;;;;;57.72;34.65;;;14.10;99.90;;;;;;5033869;28;20041;-62
2021/09/08 04:50:40;;;;;;;57.80;32.65;;;14.00;99.90;;;;;;5041604;28;20041;-62
2021/09/08 04:53:07;;;;;;;59.55;35.05;;;14.00;99.90;;;;;;5042878;28;20049;-62
2021/09/08 04:55:33;;;;;;;55.80;33.35;;;13.90;99.90;;;;;;5035286;28;20425;-62
2021/09/08 04:57:58;;;;;;;58.03;35.70;;;13.90;99.90;;;;;;5041444;28;20041;-62
2021/09/08 05:00:24;;;;;;;56.55;32.90;;;13.90;99.90;;;;;;5041192;28;20517;-63
2021/09/08 05:02:50;;;;;;;56.65;34.92;;;13.90;99.90;;;;;;5043988;28;20073;-62
2021/09/08 05:05:16;;;;;;;55.65;35.55;;;13.90;99.90;;;;;;5036403;28;20037;-63
2021/09/08 05:07:41;;;;;;;65.78;35.58;;;13.90;99.90;;;;;;5042631;28;20052;-63
2021/09/08 05:10:07;;;;;;;61.42;35.67;;;13.80;99.90;;;;;;5037147;28;20041;-63
2021/09/08 05:12:33;;;;;;;61.38;35.47;;;13.80;99.90;;;;;;5034907;28;20038;-62
2021/09/08 05:15:00;;;;;;;67.47;39.83;;;13.70;99.90;;;;;;5038533;28;20072;-63
2021/09/08 05:17:26;;;;;;;64.03;37.20;;;14.30;99.90;;;;;;5039812;28;20050;-62
2021/09/08 05:19:52;;;;;;;62.80;39.15;;;13.90;99.90;;;;;;5040980;28;20599;-62
2021/09/08 05:22:18;;;;;;;61.03;36.72;;;13.60;99.90;;;;;;5040455;28;20045;-62
2021/09/08 05:24:44;;;;;;;68.38;40.03;;;13.70;99.90;;;;;;5033741;28;20065;-62
2021/09/08 05:27:10;;;;;;;58.42;37.72;;;13.80;99.90;;;;;;5040065;28;20041;-62
2021/09/08 05:29:36;;;;;;;62.03;39.53;;;13.80;99.90;;;;;;5040388;28;20061;-62
2021/09/08 05:32:02;;;;;;;64.90;37.35;;;13.80;99.90;;;;;;5040074;28;20041;-62
2021/09/08 05:34:28;;;;;;;55.33;37.42;;;13.80;99.90;;;;;;5041787;28;20097;-62
2021/09/08 05:36:55;;;;;;;58.95;36.78;;;13.80;99.90;;;;;;5038944;28;20060;-62
2021/09/08 05:39:20;;;;;;;58.42;36.65;;;13.90;99.90;;;;;;5038504;28;20048;-62
2021/09/08 05:41:46;;;;;;;56.78;36.25;;;14.00;99.90;;;;;;5038933;28;20430;-62
2021/09/08 05:44:12;;;;;;;60.33;37.28;;;14.00;99.90;;;;;;5038090;28;20112;-62
2021/09/08 05:46:37;;;;;;;53.30;34.78;;;14.10;99.90;;;;;;5040737;28;20045;-62
2021/09/08 05:49:03;;;;;;;51.20;35.03;;;14.20;99.90;;;;;;5038385;28;20037;-62
2021/09/08 05:51:29;;;;;;;50.80;32.90;;;14.30;99.90;;;;;;5034768;28;20108;-62
2021/09/08 05:53:55;;;;;;;52.72;35.08;;;14.30;99.90;;;;;;5039362;28;20049;-62
2021/09/08 05:56:20;;;;;;;51.22;35.53;;;14.50;99.90;;;;;;5040651;28;20414;-62
2021/09/08 05:58:46;;;;;;;49.83;35.33;;;14.50;99.90;;;;;;5040082;28;20119;-62
2021/09/08 06:01:12;;;;;;;43.85;31.98;;;14.60;99.90;;;;;;5040181;28;20049;-62
2021/09/08 06:03:37;;;;;;;49.00;32.22;;;14.60;99.90;;;;;;5030079;28;20038;-62
2021/09/08 06:06:03;;;;;;;46.25;33.17;;;14.70;99.90;;;;;;5036812;28;20045;-62
2021/09/08 06:08:30;;;;;;;44.15;32.40;;;14.80;99.90;;;;;;5034409;28;20033;-62
2021/09/08 06:10:56;;;;;;;49.85;34.03;;;15.00;99.90;;;;;;5041467;28;20132;-62
2021/09/08 06:13:22;;;;;;;54.97;34.60;;;15.10;99.90;;;;;;5033799;28;20506;-63
2021/09/08 06:15:48;;;;;;;52.30;34.47;;;15.20;99.90;;;;;;5039825;28;20045;-62
2021/09/08 06:18:13;;;;;;;48.80;32.55;;;15.30;99.90;;;;;;5042199;28;20109;-62
2021/09/08 06:20:39;;;;;;;46.67;33.38;;;15.40;99.90;;;;;;5042417;28;20049;-62
2021/09/08 06:23:05;;;;;;;48.90;30.88;;;15.40;99.90;;;;;;5033307;28;20049;-62
2021/09/08 06:25:31;;;;;;;47.40;30.67;;;15.50;99.90;;;;;;5039243;28;20072;-62
2021/09/08 06:27:57;;;;;;;44.55;30.55;;;15.60;99.90;;;;;;5034690;28;20049;-62
2021/09/08 06:30:22;;;;;;;42.55;28.95;;;15.80;99.90;;;;;;5038183;28;20065;-62
2021/09/08 06:32:48;;;;;;;49.25;29.17;;;15.90;99.90;;;;;;5037820;28;20044;-62
2021/09/08 06:35:14;;;;;;;40.30;28.35;;;16.00;99.90;;;;;;5035374;28;20066;-62
2021/09/08 06:37:41;;;;;;;47.30;30.35;;;16.10;99.90;;;;;;5038271;28;20050;-62
2021/09/08 06:40:07;;;;;;;45.08;27.13;;;16.20;99.90;;;;;;5032618;28;20049;-62
2021/09/08 06:42:33;;;;;;;42.13;28.17;;;16.20;99.90;;;;;;5041338;28;20050;-62
2021/09/08 06:44:58;;;;;;;43.13;25.90;;;16.30;99.90;;;;;;5040579;28;20113;-62
2021/09/08 06:47:24;;;;;;;41.15;26.40;;;16.50;99.90;;;;;;5039408;28;20033;-62
2021/09/08 06:49:51;;;;;;;37.83;25.98;;;16.50;99.90;;;;;;5031132;28;20052;-63
2021/09/08 06:52:17;;;;;;;36.93;24.27;;;16.60;99.90;;;;;;5038776;28;20058;-62
2021/09/08 06:54:42;;;;;;;36.97;26.08;;;16.70;99.90;;;;;;5039970;28;20041;-62
2021/09/08 06:57:12;;;;;;;37.75;25.17;;;16.70;99.90;;;;;;5033787;28;20045;-62
2021/09/08 06:59:39;;;;;;;34.90;23.75;;;16.90;99.90;;;;;;5041578;28;20129;-62
2021/09/08 07:02:05;;;;;;;49.88;26.52;;;16.90;99.90;;;;;;5039330;28;20111;-62
2021/09/08 07:04:32;;;;;;;35.08;22.95;;;17.00;99.90;;;;;;5040704;28;20048;-62
2021/09/08 07:06:58;;;;;;;36.28;22.67;;;17.00;99.90;;;;;;5041625;28;20045;-62
2021/09/08 07:09:24;;;;;;;33.63;22.80;;;17.20;99.90;;;;;;5041707;28;20428;-62
2021/09/08 07:11:49;;;;;;;39.08;23.83;;;17.30;99.90;;;;;;5037614;28;20049;-62
2021/09/08 07:14:15;;;;;;;28.42;21.98;;;17.40;99.90;;;;;;5044414;28;20108;-62
2021/09/08 07:16:41;;;;;;;32.53;22.08;;;17.50;99.90;;;;;;5045927;28;20099;-62
2021/09/08 07:19:06;;;;;;;27.98;20.45;;;17.60;99.90;;;;;;5042042;28;20105;-62
2021/09/08 07:21:32;;;;;;;30.75;20.63;;;17.70;99.90;;;;;;5035845;28;20406;-62
2021/09/08 07:23:58;;;;;;;27.85;19.80;;;18.00;99.90;;;;;;5042979;28;20091;-62
2021/09/08 07:26:24;;;;;;;32.15;22.23;;;18.20;99.90;;;;;;5045316;28;20056;-63
2021/09/08 07:28:50;;;;;;;30.73;22.48;;;18.20;99.90;;;;;;5042506;28;20056;-62
2021/09/08 07:31:16;;;;;;;32.50;19.63;;;18.60;99.90;;;;;;5039434;28;20048;-62
2021/09/08 07:33:42;;;;;;;25.92;19.67;;;18.50;99.90;;;;;;5042413;28;20077;-62
2021/09/08 07:36:08;;;;;;;25.63;17.98;;;18.60;99.90;;;;;;5042312;28;20076;-63
2021/09/08 07:38:33;;;;;;;28.50;19.27;;;18.90;99.90;;;;;;5045569;28;20058;-65
2021/09/08 07:40:59;;;;;;;25.70;18.55;;;18.90;99.90;;;;;;5040116;28;20111;-66
2021/09/08 07:43:25;;;;;;;24.35;18.92;;;19.10;99.90;;;;;;5041584;28;20059;-64
2021/09/08 07:45:51;;;;;;;25.48;18.17;;;19.20;99.90;;;;;;5043807;28;20033;-64
2021/09/08 07:48:19;;;;;;;22.58;16.17;;;19.40;99.90;;;;;;5043827;28;20037;-65
2021/09/08 07:51:16;;;;;;;22.95;16.20;;;19.60;99.90;;;;;;5042879;28;20079;-65
2021/09/08 07:53:42;;;;;;;22.45;15.77;;;19.70;99.90;;;;;;5074313;28;20056;-65
2021/09/08 07:56:08;;;;;;;21.10;15.45;;;19.90;99.90;;;;;;5041210;28;20038;-64
2021/09/08 07:58:34;;;;;;;20.75;15.18;;;20.10;99.90;;;;;;5038538;28;20052;-64
2021/09/08 08:00:59;;;;;;;25.88;14.77;;;20.30;99.90;;;;;;5051014;28;20039;-64
2021/09/08 08:03:25;;;;;;;21.58;15.18;;;20.50;99.90;;;;;;5045178;28;20049;-64
2021/09/08 08:05:51;;;;;;;19.67;14.60;;;20.50;99.90;;;;;;5037714;28;20445;-65
2021/09/08 08:08:17;;;;;;;21.55;13.65;;;20.70;99.90;;;;;;5042752;28;20109;-64
2021/09/08 08:10:42;;;;;;;23.27;14.25;;;21.00;99.90;;;;;;5037604;28;20052;-64
2021/09/08 08:13:08;;;;;;;26.52;14.98;;;21.00;99.90;;;;;;5041769;28;20405;-65
2021/09/08 08:15:34;;;;;;;20.83;14.18;;;21.10;99.90;;;;;;5040849;28;20049;-65
2021/09/08 08:18:00;;;;;;;22.92;13.48;;;21.10;99.90;;;;;;5042536;28;20468;-65
2021/09/08 08:20:25;;;;;;;17.80;13.80;;;21.10;99.90;;;;;;5041001;28;20045;-65
2021/09/08 08:22:52;;;;;;;19.77;12.63;;;21.30;99.90;;;;;;5043580;28;20037;-64
2021/09/08 08:25:20;;;;;;;22.30;14.13;;;21.40;99.90;;;;;;5068763;28;20128;-64
2021/09/08 08:27:47;;;;;;;18.05;13.82;;;21.60;99.90;;;;;;5044718;28;20097;-64
2021/09/08 08:30:16;;;;;;;21.48;12.65;;;21.70;99.90;;;;;;5041409;28;20045;-64
2021/09/08 08:32:42;;;;;;;17.25;13.10;;;21.70;99.90;;;;;;5038551;28;20046;-64
2021/09/08 08:35:08;;;;;;;15.57;12.57;;;21.90;99.90;;;;;;5037646;28;20057;-64
2021/09/08 08:37:34;;;;;;;17.00;12.80;;;21.70;99.90;;;;;;5048789;28;20042;-64
2021/09/08 08:40:02;;;;;;;16.88;12.90;;;21.90;99.90;;;;;;5042114;28;20041;-64
2021/09/08 08:42:30;;;;;;;15.98;11.88;;;22.00;99.90;;;;;;5047358;28;20041;-65
2021/09/08 08:44:57;;;;;;;18.50;12.05;;;22.20;99.90;;;;;;5039293;28;20099;-65
2021/09/08 08:47:23;;;;;;;16.20;12.80;;;22.20;99.90;;;;;;5040004;28;20143;-65
2021/09/08 08:49:49;;;;;;;21.25;12.85;;;22.30;99.90;;;;;;5043387;28;20042;-65
2021/09/08 08:52:16;;;;;;;17.20;12.35;;;22.40;99.90;;;;;;5041170;28;20054;-65
2021/09/08 08:54:42;;;;;;;17.83;12.53;;;22.50;99.90;;;;;;5041945;28;20037;-60
2021/09/08 08:57:13;;;;;;;17.65;12.55;;;22.60;99.90;;;;;;5038656;28;20304;-70
2021/09/08 08:59:40;;;;;;;15.55;13.18;;;22.70;99.90;;;;;;5040850;28;20052;-62
2021/09/08 09:02:19;;;;;;;;;;;22.90;99.90;;;;;;5039366;28;20049;-66
2021/09/08 09:04:45;;;;;;;17.95;12.82;;;22.50;99.90;;;;;;5038775;28;19936;-66
2021/09/08 09:07:26;;;;;;;18.08;12.57;;;22.60;99.90;;;;;;5038654;28;20057;-67
2021/09/08 09:09:57;;;;;;;15.85;11.18;;;22.80;99.90;;;;;;5040330;28;20048;-72
2021/09/08 09:12:33;;;;;;;18.42;12.90;;;23.00;99.90;;;;;;5040402;28;20160;-68
2021/09/08 09:15:00;;;;;;;16.30;12.50;;;22.90;99.90;;;;;;5039309;28;20048;-66
2021/09/08 09:17:30;;;;;;;17.17;12.00;;;23.00;99.90;;;;;;5040817;28;20552;-66
2021/09/08 09:19:57;;;;;;;15.35;11.35;;;23.10;99.90;;;;;;5037143;28;20045;-67
2021/09/08 09:22:44;;;;;;;19.23;12.23;;;23.20;99.90;;;;;;5041106;28;20053;-68
2021/09/08 09:25:13;;;;;;;15.07;11.80;;;23.20;99.90;;;;;;5041483;28;20418;-66
2021/09/08 09:27:47;;;;;;;14.75;10.43;;;23.40;99.90;;;;;;5040852;28;20056;-64
2021/09/08 09:30:19;;;;;;;14.98;10.55;;;23.40;99.90;;;;;;5039656;28;20064;-63
2021/09/08 09:32:47;;;;;;;15.57;11.93;;;23.40;99.90;;;;;;5032258;28;20033;-64
2021/09/08 09:35:22;;;;;;;12.95;9.93;;;23.20;99.90;;;;;;5038548;28;20067;-66
2021/09/08 09:38:04;;;;;;;13.38;10.40;;;23.50;99.90;;;;;;5043466;28;20543;-70
2021/09/08 09:40:36;;;;;;;16.08;10.93;;;23.60;99.90;;;;;;5072606;28;20044;-68
2021/09/08 09:43:10;;;;;;;13.45;9.25;;;23.60;99.90;;;;;;5037609;28;20060;-63
2021/09/08 09:45:38;;;;;;;13.80;10.13;;;23.60;99.90;;;;;;5041209;28;20046;-64
2021/09/08 09:48:05;;;;;;;18.33;10.27;;;23.80;99.90;;;;;;5041913;28;20041;-67
2021/09/08 09:50:32;;;;;;;15.18;9.57;;;23.80;99.90;;;;;;5040563;28;20041;-65
2021/09/08 09:52:58;;;;;;;14.68;10.65;;;23.50;99.90;;;;;;5039993;28;20037;-63
2021/09/08 09:55:26;;;;;;;15.75;9.45;;;23.30;99.90;;;;;;5039978;28;20045;-64
2021/09/08 09:57:53;;;;;;;12.07;9.45;;;23.50;99.90;;;;;;5040893;28;20038;-66
2021/09/08 10:00:19;;;;;;;11.43;8.43;;;23.70;99.90;;;;;;5043127;28;20089;-67
2021/09/08 10:02:46;;;;;;;14.25;8.48;;;23.90;99.90;;;;;;5044648;28;20037;-65
2021/09/08 10:05:14;;;;;;;12.13;8.25;;;24.00;99.90;;;;;;5043705;28;20044;-63
2021/09/08 10:07:40;;;;;;;13.73;9.73;;;24.00;99.90;;;;;;5042639;28;20049;-65
2021/09/08 10:10:13;;;;;;;17.27;8.93;;;23.90;99.90;;;;;;5025437;28;20412;-66
2021/09/08 10:12:45;;;;;;;15.20;8.95;;;23.90;99.90;;;;;;5041338;28;20034;-64
2021/09/08 10:15:14;;;;;;;12.75;7.30;;;23.70;99.90;;;;;;5039927;28;20052;-67
2021/09/08 10:17:45;;;;;;;17.75;8.70;;;23.70;99.90;;;;;;5042452;28;20095;-67
2021/09/08 10:20:15;;;;;;;11.38;8.00;;;23.70;99.10;;;;;;5037089;28;20054;-66
2021/09/08 10:22:43;;;;;;;11.25;8.13;;;23.80;99.70;;;;;;5043445;28;20048;-63
2021/09/08 10:25:11;;;;;;;16.58;7.50;;;23.90;99.50;;;;;;5039713;28;20038;-66
2021/09/08 10:27:37;;;;;;;10.73;7.68;;;24.10;99.40;;;;;;5036533;28;20033;-64
2021/09/08 10:30:03;;;;;;;13.70;8.65;;;24.30;99.90;;;;;;5038381;28;20053;-71
2021/09/08 10:32:30;;;;;;;16.40;8.40;;;24.40;99.90;;;;;;5036247;28;20060;-65
2021/09/08 10:34:56;;;;;;;9.60;7.17;;;24.40;99.40;;;;;;5034758;28;20037;-65
2021/09/08 10:37:23;;;;;;;17.10;7.68;;;24.40;97.90;;;;;;5037651;28;20064;-69
2021/09/08 10:39:48;;;;;;;15.15;7.60;;;24.50;98.70;;;;;;5041759;28;20056;-67
2021/09/08 10:42:15;;;;;;;10.40;7.93;;;24.50;99.80;;;;;;5040150;28;20042;-67
2021/09/08 10:44:50;;;;;;;10.50;6.00;;;24.50;97.90;;;;;;5046105;28;20052;-67
2021/09/08 10:47:37;;;;;;;10.43;7.32;;;24.70;98.60;;;;;;5046082;28;20053;-67
2021/09/08 10:50:04;;;;;;;18.02;7.63;;;24.90;98.80;;;;;;5046719;28;20661;-67
2021/09/08 10:52:36;;;;;;;9.93;6.65;;;25.00;97.20;;;;;;5051319;28;20048;-67
2021/09/08 10:55:02;;;;;;;9.27;6.43;;;25.10;95.40;;;;;;5044437;28;20050;-67
2021/09/08 10:57:52;;;;;;;11.52;6.72;;;25.20;95.80;;;;;;5042386;28;20049;-62
2021/09/08 11:00:25;;;;;;;7.95;6.20;;;25.30;96.60;;;;;;5041822;28;20053;-63
2021/09/08 11:02:51;;;;;;;11.93;7.20;;;25.40;96.30;;;;;;5043164;28;20042;-64
2021/09/08 11:05:17;;;;;;;7.93;6.63;;;25.40;95.10;;;;;;5038606;28;20103;-63
2021/09/08 11:07:44;;;;;;;9.45;6.60;;;25.30;93.70;;;;;;5042234;28;20469;-72
2021/09/08 11:10:10;;;;;;;;;;;25.40;93.10;;;;;;5040176;28;20136;-69
2021/09/08 11:12:50;;;;;;;9.07;6.85;;;25.20;93.50;;;;;;5056943;28;19960;-70
2021/09/08 11:15:20;;;;;;;12.05;7.20;;;25.40;93.80;;;;;;5036133;28;20089;-66
2021/09/08 11:17:55;;;;;;;11.90;7.03;;;25.50;93.70;;;;;;5047891;28;20097;-65
2021/09/08 11:20:21;;;;;;;11.68;6.55;;;25.60;91.60;;;;;;5048257;28;20033;-66
2021/09/08 11:23:00;;;;;;;11.55;7.53;;;25.90;93.40;;;;;;5048244;28;20068;-65
2021/09/08 11:25:32;;;;;;;8.88;5.75;;;25.90;91.10;;;;;;5040886;28;20060;-66
2021/09/08 11:27:58;;;;;;;10.40;6.15;;;25.90;90.30;;;;;;5037265;28;20594;-66
2021/09/08 11:30:29;;;;;;;7.85;6.90;;;26.00;90.00;;;;;;5044795;28;20037;-67
2021/09/08 11:33:10;;;;;;;9.25;6.72;;;26.20;91.80;;;;;;5046791;28;20566;-66
2021/09/08 11:35:50;;;;;;;8.30;6.30;;;26.40;92.50;;;;;;5036331;28;20409;-66
2021/09/08 11:38:26;;;;;;;11.55;5.82;;;26.60;87.90;;;;;;5046187;28;20046;-66
2021/09/08 11:41:05;;;;;;;6.30;5.07;;;27.40;84.80;;;;;;5043248;28;20119;-66
2021/09/08 11:43:48;;;;;;;10.23;5.93;;;27.50;83.40;;;;;;5042272;28;20064;-65
2021/09/08 11:46:22;;;;;;;9.50;5.32;;;27.90;74.50;;;;;;5045196;28;20060;-65
2021/09/08 11:48:50;;;;;;;6.88;5.53;;;28.40;78.10;;;;;;5041783;28;20048;-65
2021/09/08 11:51:19;;;;;;;7.90;4.95;;;28.20;70.10;;;;;;5040533;28;20113;-64
2021/09/08 11:53:47;;;;;;;7.13;5.20;;;27.60;69.40;;;;;;5046222;28;20048;-63
2021/09/08 11:56:14;;;;;;;8.05;6.25;;;27.20;73.60;;;;;;5039519;28;20041;-64
2021/09/08 11:58:42;;;;;;;10.38;6.18;;;27.60;74.50;;;;;;5048578;28;20044;-66
2021/09/08 12:01:10;;;;;;;8.57;5.53;;;27.80;74.80;;;;;;5040829;28;20091;-64
2021/09/08 12:03:42;;;;;;;8.68;5.28;;;28.50;76.00;;;;;;5042720;28;20061;-63
2021/09/08 12:06:12;;;;;;;6.90;5.18;;;29.40;65.70;;;;;;5042806;28;20052;-63
2021/09/08 12:08:48;;;;;;;13.27;5.72;;;29.40;66.20;;;;;;5039188;28;20061;-65
2021/09/08 12:11:40;;;;;;;16.00;5.22;;;29.40;64.20;;;;;;5041722;28;20037;-64
2021/09/08 12:14:32;;;;;;;7.65;4.88;;;29.90;62.10;;;;;;5045421;28;20109;-66
2021/09/08 12:17:03;;;;;;;5.65;5.13;;;29.90;61.50;;;;;;5035478;28;20606;-67
2021/09/08 12:19:32;;;;;;;7.68;4.85;;;29.10;61.80;;;;;;5048207;28;20067;-67
2021/09/08 12:22:11;;;;;;;6.75;4.95;;;29.00;62.40;;;;;;5041903;28;20174;-65
2021/09/08 12:24:40;;;;;;;8.95;4.60;;;28.70;61.30;;;;;;5040458;28;20037;-66
2021/09/08 12:27:34;;;;;;;10.27;5.35;;;29.00;61.20;;;;;;5039873;28;20045;-68
2021/09/08 12:30:14;;;;;;;9.20;4.50;;;29.50;59.50;;;;;;5040114;28;20041;-72
2021/09/08 12:32:43;;;;;;;6.93;4.32;;;29.80;58.50;;;;;;5077708;28;20500;-71